Terminal Aerodrome Forecast
Issued by NWS Lake Charles, LA

Home | Current Version | Previous Version | Text Only | Print | Product List | Glossary On
Versions: 1 2 3 4 5 6 7 8 9 10 11 12 13 14 15
187
FTUS44 KLCH 281722
TAFARA
TAF
KARA 281722Z 2818/2918 08010KT P6SM VCTS SCT030CB BKN050
      TEMPO 2818/2821 5SM -TSRA BKN030CB
     FM290100 07006KT P6SM FEW050 SCT100=

USA.gov is the U.S. government's official web portal to all federal, state and local government web resources and services.